Time;durP1;ratioP1;P1;durP2;ratioP2;P2;SDS_P1;SDS_P2;PMS_P1;PMS_P2;Temp;Humidity;BMP_temperature;BMP_pressure;BME280_temperature;BME280_humidity;BME280_pressure;Samples;Min_cycle;Max_cycle;Signal;HPM_P1;HPM_P2
2021/08/06 00:01:18;;;;;;;;;;;;;;;22.31;58.67;100402.59;4953639;28;99003;-74
2021/08/06 00:03:44;;;;;;;;;;;;;;;22.29;58.75;100401.84;4956142;28;98836;-74
2021/08/06 00:06:10;;;;;;;;;;;;;;;22.29;59.36;100401.84;4963897;28;97322;-74
2021/08/06 00:08:37;;;;;;;;;;;;;;;22.18;59.69;100394.75;4971846;28;96610;-73
2021/08/06 00:11:05;;;;;;;;;;;;;;;22.31;59.42;100391.81;4962497;28;97794;-74
2021/08/06 00:13:32;;;;;;;;;;;;;;;22.33;59.23;100403.28;4954901;28;99137;-74
2021/08/06 00:15:58;;;;;;;;;;;;;;;22.35;59.25;100397.75;4954749;28;96958;-73
2021/08/06 00:18:24;;;;;;;;;;;;;;;22.32;59.32;100396.19;4952821;28;96998;-73
2021/08/06 00:20:51;;;;;;;;;;;;;;;22.30;59.34;100398.19;4948413;28;99267;-74
2021/08/06 00:23:17;;;;;;;;;;;;;;;22.36;59.38;100392.25;4954190;28;99103;-74
2021/08/06 00:25:43;;;;;;;;;;;;;;;22.29;59.29;100395.63;4953802;28;97233;-74
2021/08/06 00:28:11;;;;;;;;;;;;;;;22.31;59.30;100399.88;4954029;28;96886;-74
2021/08/06 00:30:37;;;;;;;;;;;;;;;22.41;58.81;100399.91;4953041;28;98025;-74
2021/08/06 00:33:04;;;;;;;;;;;;;;;22.19;59.25;100393.75;4953742;28;98880;-74
2021/08/06 00:35:30;;;;;;;;;;;;;;;22.24;59.25;100394.19;4954612;28;97001;-73
2021/08/06 00:37:57;;;;;;;;;;;;;;;22.13;59.42;100394.28;4954267;28;96909;-72
2021/08/06 00:40:23;;;;;;;;;;;;;;;22.26;59.28;100394.91;4953109;28;99301;-73
2021/08/06 00:42:50;;;;;;;;;;;;;;;22.15;59.52;100383.41;4954126;28;99084;-73
2021/08/06 00:45:17;;;;;;;;;;;;;;;22.07;59.81;100385.91;4952634;28;97032;-73
2021/08/06 00:47:44;;;;;;;;;;;;;;;22.21;59.53;100381.00;4953539;28;96900;-74
2021/08/06 00:50:11;;;;;;;;;;;;;;;22.22;59.33;100385.41;4954180;28;99325;-74
2021/08/06 00:52:38;;;;;;;;;;;;;;;21.98;59.88;100376.84;4955284;28;99170;-74
2021/08/06 00:55:05;;;;;;;;;;;;;;;22.37;58.81;100380.50;4953369;28;96750;-74
2021/08/06 00:57:31;;;;;;;;;;;;;;;22.23;59.28;100384.41;4953503;28;97103;-74
2021/08/06 00:59:57;;;;;;;;;;;;;;;22.27;59.18;100379.59;4942073;28;98924;-74
2021/08/06 01:02:26;;;;;;;;;;;;;;;22.31;59.02;100372.97;4946031;28;98799;-73
2021/08/06 01:04:55;;;;;;;;;;;;;;;22.29;58.90;100377.63;4936330;28;96933;-73
2021/08/06 01:07:24;;;;;;;;;;;;;;;22.29;59.08;100374.94;4938706;28;96955;-74
2021/08/06 01:09:54;;;;;;;;;;;;;;;22.11;59.81;100366.69;4953220;28;99119;-73
2021/08/06 01:12:23;;;;;;;;;;;;;;;22.12;60.11;100367.53;4953017;28;98764;-74
2021/08/06 01:14:50;;;;;;;;;;;;;;;22.27;59.79;100366.16;4953498;28;97013;-73
2021/08/06 01:17:17;;;;;;;;;;;;;;;22.21;59.44;100366.69;4953735;28;96926;-72
2021/08/06 01:19:52;;;;;;;;;;;;;;;22.10;59.75;100364.97;4953000;28;99630;-74
2021/08/06 01:22:21;;;;;;;;;;;;;;;22.23;59.78;100362.03;4953614;28;98838;-74
2021/08/06 01:24:50;;;;;;;;;;;;;;;22.22;59.86;100365.72;4953704;28;97113;-73
2021/08/06 01:27:18;;;;;;;;;;;;;;;22.25;59.81;100365.47;4956672;28;96967;-74
2021/08/06 01:29:44;;;;;;;;;;;;;;;22.19;59.93;100358.75;4955229;28;98931;-74
2021/08/06 01:32:10;;;;;;;;;;;;;;;22.19;59.83;100364.13;4955939;28;99027;-75
2021/08/06 01:34:37;;;;;;;;;;;;;;;22.15;59.77;100361.88;4955563;28;96699;-73
2021/08/06 01:37:03;;;;;;;;;;;;;;;22.13;59.74;100361.16;4956954;28;96932;-74
2021/08/06 01:39:29;;;;;;;;;;;;;;;22.12;59.74;100370.22;4955823;28;99108;-73
2021/08/06 01:42:02;;;;;;;;;;;;;;;22.13;59.87;100364.69;4956510;28;98777;-73
2021/08/06 01:44:33;;;;;;;;;;;;;;;22.21;59.41;100366.69;4955949;28;98787;-73
2021/08/06 01:47:03;;;;;;;;;;;;;;;22.26;59.47;100359.06;4956788;28;97186;-73
2021/08/06 01:49:31;;;;;;;;;;;;;;;22.26;59.28;100369.81;4954852;28;98903;-73
2021/08/06 01:51:59;;;;;;;;;;;;;;;22.31;59.07;100366.75;4957534;28;98807;-73
2021/08/06 01:54:28;;;;;;;;;;;;;;;22.39;58.87;100365.03;4956327;28;97537;-73
2021/08/06 01:56:55;;;;;;;;;;;;;;;22.34;59.22;100372.69;4955308;28;97083;-73
2021/08/06 01:59:21;;;;;;;;;;;;;;;22.41;58.85;100368.44;4955354;28;98993;-74
2021/08/06 02:01:49;;;;;;;;;;;;;;;22.53;58.18;100355.69;4956766;28;99181;-73
2021/08/06 02:04:15;;;;;;;;;;;;;;;22.63;57.82;100356.56;4955802;28;96915;-74
2021/08/06 02:06:43;;;;;;;;;;;;;;;22.53;57.84;100356.56;4955645;28;98842;-74
2021/08/06 02:09:14;;;;;;;;;;;;;;;22.55;58.07;100351.03;4955449;28;99442;-74
2021/08/06 02:11:40;;;;;;;;;;;;;;;22.43;57.92;100352.16;4950175;28;99002;-74
2021/08/06 02:14:06;;;;;;;;;;;;;;;22.49;57.86;100355.16;4955955;28;96730;-74
2021/08/06 02:16:33;;;;;;;;;;;;;;;22.53;58.32;100348.47;4953801;28;97430;-74
2021/08/06 02:19:01;;;;;;;;;;;;;;;22.39;58.90;100343.50;4953617;28;98969;-74
2021/08/06 02:21:30;;;;;;;;;;;;;;;22.40;58.79;100345.19;4956191;28;99959;-74
2021/08/06 02:24:00;;;;;;;;;;;;;;;22.31;59.01;100348.75;4955595;28;97294;-74
2021/08/06 02:26:27;;;;;;;;;;;;;;;22.24;59.09;100348.44;4956686;28;96980;-74
2021/08/06 02:28:53;;;;;;;;;;;;;;;22.22;59.27;100352.25;4960538;28;97814;-74
2021/08/06 02:31:20;;;;;;;;;;;;;;;22.21;59.29;100347.88;4959808;28;98760;-73
2021/08/06 02:33:46;;;;;;;;;;;;;;;22.08;59.35;100337.34;4958383;28;97257;-73
2021/08/06 02:36:14;;;;;;;;;;;;;;;22.13;59.54;100343.16;4961139;28;96835;-73
2021/08/06 02:38:41;;;;;;;;;;;;;;;22.07;59.76;100348.25;4958602;28;99056;-74
2021/08/06 02:41:07;;;;;;;;;;;;;;;22.17;59.69;100344.63;4958275;28;98848;-74
2021/08/06 02:43:34;;;;;;;;;;;;;;;22.32;58.96;100344.22;4958769;28;96979;-73
2021/08/06 02:46:00;;;;;;;;;;;;;;;22.24;58.98;100342.22;4961455;28;97341;-74
2021/08/06 02:48:26;;;;;;;;;;;;;;;22.22;58.87;100344.19;4958155;28;97807;-72
2021/08/06 02:50:53;;;;;;;;;;;;;;;22.27;58.93;100345.47;4956170;28;102661;-74
2021/08/06 02:53:20;;;;;;;;;;;;;;;22.23;58.79;100343.19;4957075;28;96766;-73
2021/08/06 02:55:47;;;;;;;;;;;;;;;22.10;59.21;100337.22;4956720;28;96885;-74
2021/08/06 02:58:13;;;;;;;;;;;;;;;22.13;59.11;100335.09;4956416;28;98917;-73
2021/08/06 03:00:39;;;;;;;;;;;;;;;22.27;58.31;100341.91;4957585;28;98878;-74
2021/08/06 03:03:05;;;;;;;;;;;;;;;22.30;58.40;100343.50;4956998;28;96803;-74
2021/08/06 03:05:32;;;;;;;;;;;;;;;22.32;58.15;100336.16;4962739;28;97904;-73
2021/08/06 03:07:58;;;;;;;;;;;;;;;22.34;58.42;100334.13;4956614;28;98924;-74
2021/08/06 03:10:26;;;;;;;;;;;;;;;22.20;59.04;100338.09;4955820;28;99217;-74
2021/08/06 03:12:52;;;;;;;;;;;;;;;22.09;59.11;100341.75;4957348;28;96719;-74
2021/08/06 03:15:19;;;;;;;;;;;;;;;22.20;58.77;100338.09;4959707;28;97351;-75
2021/08/06 03:17:45;;;;;;;;;;;;;;;22.24;59.00;100339.53;4965780;28;98984;-75
2021/08/06 03:20:12;;;;;;;;;;;;;;;22.24;59.15;100339.53;4964482;28;98811;-74
2021/08/06 03:22:39;;;;;;;;;;;;;;;22.28;58.98;100332.88;4972474;28;96698;-73
2021/08/06 03:25:05;;;;;;;;;;;;;;;22.16;59.21;100333.97;4964657;28;96759;-73
2021/08/06 03:27:33;;;;;;;;;;;;;;;22.22;59.08;100333.41;4958873;28;98920;-74
2021/08/06 03:30:00;;;;;;;;;;;;;;;22.23;59.02;100337.81;4973012;28;97854;-74
2021/08/06 03:32:26;;;;;;;;;;;;;;;22.19;59.19;100337.22;4967596;28;96610;-74
2021/08/06 03:34:52;;;;;;;;;;;;;;;22.15;59.14;100333.13;4960837;28;96857;-74
2021/08/06 03:37:19;;;;;;;;;;;;;;;22.31;58.82;100321.84;4956127;28;99005;-74
2021/08/06 03:39:45;;;;;;;;;;;;;;;22.28;58.31;100330.16;4957127;28;100142;-72
2021/08/06 03:42:14;;;;;;;;;;;;;;;22.34;58.21;100324.22;4963552;28;96695;-73
2021/08/06 03:44:42;;;;;;;;;;;;;;;22.40;58.29;100326.34;4965286;28;98410;-73
2021/08/06 03:47:08;;;;;;;;;;;;;;;22.30;58.52;100333.59;4958155;28;99086;-73
2021/08/06 03:49:34;;;;;;;;;;;;;;;22.29;58.83;100329.19;4957007;28;99177;-74
2021/08/06 03:52:01;;;;;;;;;;;;;;;22.36;58.66;100326.78;4962697;28;96681;-74
2021/08/06 03:54:27;;;;;;;;;;;;;;;22.36;58.49;100321.41;4960711;28;97308;-73
2021/08/06 03:56:53;;;;;;;;;;;;;;;22.44;57.96;100317.03;4963195;28;98978;-73
2021/08/06 03:59:19;;;;;;;;;;;;;;;22.26;58.70;100326.75;4961828;28;98821;-74
2021/08/06 04:01:47;;;;;;;;;;;;;;;22.19;59.05;100326.47;4961982;28;96732;-74
2021/08/06 04:04:13;;;;;;;;;;;;;;;22.23;58.71;100321.66;4957317;28;96887;-74
2021/08/06 04:06:40;;;;;;;;;;;;;;;22.30;58.77;100328.19;4965190;28;97885;-73
2021/08/06 04:09:06;;;;;;;;;;;;;;;22.31;58.79;100324.53;4960565;28;98971;-73
2021/08/06 04:11:32;;;;;;;;;;;;;;;22.21;58.87;100327.19;4966641;28;97212;-73
2021/08/06 04:13:59;;;;;;;;;;;;;;;22.33;58.33;100316.28;4967656;28;96782;-74
2021/08/06 04:16:25;;;;;;;;;;;;;;;22.42;58.22;100315.47;4966739;28;97846;-74
2021/08/06 04:18:53;;;;;;;;;;;;;;;22.47;57.96;100314.03;4961725;28;98194;-74
2021/08/06 04:21:20;;;;;;;;;;;;;;;22.35;58.25;100312.47;4963215;28;96776;-74
2021/08/06 04:23:46;;;;;;;;;;;;;;;22.46;58.21;100308.78;4961787;28;96890;-73
2021/08/06 04:26:12;;;;;;;;;;;;;;;22.45;58.58;100309.81;4957774;28;98951;-73
2021/08/06 04:28:39;;;;;;;;;;;;;;;22.40;58.92;100303.97;4955938;28;98850;-72
2021/08/06 04:31:05;;;;;;;;;;;;;;;22.37;59.21;100313.19;4954287;28;96882;-74
2021/08/06 04:33:32;;;;;;;;;;;;;;;22.34;59.38;100313.47;4952219;28;97113;-74
2021/08/06 04:35:59;;;;;;;;;;;;;;;22.37;59.18;100315.88;4954647;28;99238;-74
2021/08/06 04:38:26;;;;;;;;;;;;;;;22.45;58.96;100307.94;4956245;28;98849;-74
2021/08/06 04:40:53;;;;;;;;;;;;;;;22.43;59.09;100306.41;4954932;28;97186;-74
2021/08/06 04:43:20;;;;;;;;;;;;;;;22.57;58.72;100297.91;4955179;28;96878;-74
2021/08/06 04:45:46;;;;;;;;;;;;;;;22.63;58.63;100298.19;4954190;28;99350;-73
2021/08/06 04:48:13;;;;;;;;;;;;;;;22.64;58.32;100291.78;4947780;28;98801;-74
2021/08/06 04:50:39;;;;;;;;;;;;;;;22.75;58.17;100304.31;4953503;28;96893;-73
2021/08/06 04:53:07;;;;;;;;;;;;;;;22.96;57.59;100293.38;4954491;28;96810;-73
2021/08/06 04:55:33;;;;;;;;;;;;;;;22.94;57.36;100300.72;4947833;28;98959;-74
2021/08/06 04:57:59;;;;;;;;;;;;;;;23.00;55.79;100295.63;4953166;28;98322;-74
2021/08/06 05:00:26;;;;;;;;;;;;;;;23.01;55.67;100291.09;4953416;28;98516;-74
2021/08/06 05:02:52;;;;;;;;;;;;;;;22.92;55.39;100295.47;4957778;28;96922;-74
2021/08/06 05:05:18;;;;;;;;;;;;;;;23.02;55.16;100290.94;4955841;28;98885;-73
2021/08/06 05:07:49;;;;;;;;;;;;;;;23.27;55.16;100286.75;4958333;28;99327;-74
2021/08/06 05:10:17;;;;;;;;;;;;;;;23.19;56.33;100283.94;4957078;28;97279;-74
2021/08/06 05:12:43;;;;;;;;;;;;;;;23.23;56.32;100279.97;4956743;28;96991;-74
2021/08/06 05:15:09;;;;;;;;;;;;;;;23.21;56.32;100281.09;4956724;28;98893;-73
2021/08/06 05:17:36;;;;;;;;;;;;;;;23.22;56.69;100282.81;4955054;28;100693;-74
2021/08/06 05:20:02;;;;;;;;;;;;;;;23.16;57.08;100284.25;4956270;28;97561;-73
2021/08/06 05:22:28;;;;;;;;;;;;;;;23.28;56.94;100277.69;4956913;28;96813;-74
2021/08/06 05:24:55;;;;;;;;;;;;;;;23.20;57.33;100285.66;4956418;28;98717;-74
2021/08/06 05:27:22;;;;;;;;;;;;;;;23.12;57.49;100276.56;4955859;28;99180;-74
2021/08/06 05:29:49;;;;;;;;;;;;;;;23.12;57.29;100276.56;4956597;28;96882;-75
2021/08/06 05:32:15;;;;;;;;;;;;;;;23.11;57.81;100269.47;4956601;28;97240;-75
2021/08/06 05:34:41;;;;;;;;;;;;;;;23.20;57.68;100269.47;4952374;28;99369;-75
2021/08/06 05:37:08;;;;;;;;;;;;;;;23.14;57.98;100272.75;4953047;28;98926;-74
2021/08/06 05:39:34;;;;;;;;;;;;;;;23.08;58.13;100272.50;4954511;28;96888;-75
2021/08/06 05:42:00;;;;;;;;;;;;;;;23.17;57.82;100271.63;4956892;28;96871;-74
2021/08/06 05:44:28;;;;;;;;;;;;;;;23.28;57.48;100261.50;4956047;28;99557;-74
2021/08/06 05:46:54;;;;;;;;;;;;;;;23.40;57.42;100264.88;4955973;28;98781;-77
2021/08/06 05:49:20;;;;;;;;;;;;;;;23.51;56.85;100264.69;4952140;28;96957;-74
2021/08/06 05:51:46;;;;;;;;;;;;;;;23.56;56.66;100266.97;4956630;28;96950;-73
2021/08/06 05:54:13;;;;;;;;;;;;;;;23.59;56.28;100266.66;4952670;28;99484;-74
2021/08/06 05:56:39;;;;;;;;;;;;;;;23.61;56.04;100261.97;4948868;28;98893;-74
2021/08/06 05:59:05;;;;;;;;;;;;;;;23.73;55.58;100264.31;4953697;28;100123;-74
2021/08/06 06:01:33;;;;;;;;;;;;;;;23.86;54.23;100263.09;4955373;28;97248;-74
2021/08/06 06:03:59;;;;;;;;;;;;;;;23.79;53.06;100265.56;4948746;28;98964;-74
2021/08/06 06:06:26;;;;;;;;;;;;;;;;;;4956340;28;98766;-73
2021/08/06 06:08:52;;;;;;;;;;;;;;;23.90;52.63;100267.19;4952905;28;100408;-73
2021/08/06 06:11:19;;;;;;;;;;;;;;;23.84;54.09;100264.09;4946902;28;96895;-74
2021/08/06 06:13:45;;;;;;;;;;;;;;;23.96;54.68;100259.34;4951056;28;99360;-74
2021/08/06 06:16:11;;;;;;;;;;;;;;;23.98;54.59;100267.28;4955626;28;98778;-73
2021/08/06 06:18:39;;;;;;;;;;;;;;;23.90;54.78;100267.19;4952030;28;96880;-73
2021/08/06 06:21:06;;;;;;;;;;;;;;;23.96;54.54;100266.63;4948119;28;96903;-73
2021/08/06 06:23:33;;;;;;;;;;;;;;;24.04;53.97;100267.53;4946363;28;98894;-74
2021/08/06 06:25:59;;;;;;;;;;;;;;;24.01;54.14;100270.56;4952326;28;99052;-73
2021/08/06 06:28:26;;;;;;;;;;;;;;;24.16;53.22;100273.56;4954737;28;96839;-73
2021/08/06 06:30:52;;;;;;;;;;;;;;;24.33;51.96;100275.47;4952294;28;96908;-75
2021/08/06 06:33:18;;;;;;;;;;;;;;;24.39;51.56;100272.16;4954603;28;98959;-75
2021/08/06 06:35:46;;;;;;;;;;;;;;;24.53;51.17;100276.16;4953756;28;99059;-75
2021/08/06 06:38:12;;;;;;;;;;;;;;;24.63;51.03;100271.50;4940555;28;98821;-75
2021/08/06 06:40:39;;;;;;;;;;;;;;;24.44;51.37;100277.06;4954445;28;96907;-75
2021/08/06 06:43:05;;;;;;;;;;;;;;;24.60;50.71;100282.66;4955506;28;98949;-75
2021/08/06 06:45:31;;;;;;;;;;;;;;;24.71;50.41;100290.50;4954558;28;99204;-75
2021/08/06 06:47:57;;;;;;;;;;;;;;;24.69;50.61;100295.19;4949160;28;97370;-75
2021/08/06 06:50:25;;;;;;;;;;;;;;;24.82;50.00;100286.69;4952108;28;96884;-75
2021/08/06 06:52:53;;;;;;;;;;;;;;;24.84;49.93;100290.94;4954615;28;99339;-74
2021/08/06 06:55:19;;;;;;;;;;;;;;;24.92;49.64;100291.06;4953411;28;98793;-75
2021/08/06 06:57:46;;;;;;;;;;;;;;;24.93;48.89;100298.16;4954098;28;96905;-75
2021/08/06 07:00:13;;;;;;;;;;;;;;;25.27;48.13;100297.38;4942398;28;98053;-76
2021/08/06 07:02:39;;;;;;;;;;;;;;;25.24;47.77;100289.56;4945028;28;99301;-75
2021/08/06 07:05:07;;;;;;;;;;;;;;;25.34;47.31;100295.69;4949760;28;99244;-73
2021/08/06 07:07:33;;;;;;;;;;;;;;;25.61;46.91;100295.56;4950033;28;97132;-73
2021/08/06 07:10:01;;;;;;;;;;;;;;;25.76;46.30;100291.22;4953480;28;96994;-73
2021/08/06 07:12:27;;;;;;;;;;;;;;;25.92;46.26;100301.28;4955224;28;99097;-75
2021/08/06 07:14:53;;;;;;;;;;;;;;;25.91;45.42;100306.84;4946728;28;97658;-73
2021/08/06 07:17:20;;;;;;;;;;;;;;;25.59;45.51;100294.88;4954258;28;96777;-74
2021/08/06 07:19:47;;;;;;;;;;;;;;;25.69;45.59;100300.16;4955437;28;97262;-74
2021/08/06 07:22:13;;;;;;;;;;;;;;;25.75;45.75;100302.22;4954329;28;99302;-75
2021/08/06 07:24:39;;;;;;;;;;;;;;;25.72;45.43;100308.81;4948815;28;98960;-74
2021/08/06 07:27:07;;;;;;;;;;;;;;;25.80;44.80;100307.97;4952743;28;96921;-74
2021/08/06 07:29:33;;;;;;;;;;;;;;;25.61;44.70;100300.13;4954803;28;96876;-74
2021/08/06 07:31:59;;;;;;;;;;;;;;;26.02;43.26;100309.25;4949418;28;99210;-73
2021/08/06 07:34:26;;;;;;;;;;;;;;;27.50;40.21;100302.78;4953194;28;98882;-73
2021/08/06 07:36:52;;;;;;;;;;;;;;;27.18;40.46;100308.25;4950180;28;97738;-74
2021/08/06 07:39:18;;;;;;;;;;;;;;;26.81;40.75;100314.19;4954207;28;97347;-74
2021/08/06 07:41:44;;;;;;;;;;;;;;;26.10;41.72;100315.56;4952353;28;98950;-74
2021/08/06 07:44:12;;;;;;;;;;;;;;;26.05;40.33;100309.78;4951978;28;99028;-74
2021/08/06 07:46:38;;;;;;;;;;;;;;;26.68;40.12;100311.97;4951216;28;96987;-74
2021/08/06 07:49:05;;;;;;;;;;;;;;;26.98;39.63;100305.03;4953309;28;97031;-74
2021/08/06 07:51:31;;;;;;;;;;;;;;;27.14;39.36;100304.19;4953886;28;98959;-74
2021/08/06 07:53:57;;;;;;;;;;;;;;;27.18;38.68;100306.38;4952818;28;99072;-73
2021/08/06 07:56:23;;;;;;;;;;;;;;;27.15;38.64;100303.19;4953110;28;97530;-73
2021/08/06 07:58:50;;;;;;;;;;;;;;;27.02;38.31;100311.84;4953792;28;97158;-74
2021/08/06 08:01:19;;;;;;;;;;;;;;;27.12;37.41;100314.34;4953732;28;98756;-73
2021/08/06 08:03:45;;;;;;;;;;;;;;;27.63;36.54;100302.25;4936133;28;98895;-74
2021/08/06 08:06:12;;;;;;;;;;;;;;;27.04;36.28;100311.69;4950858;28;97029;-74
2021/08/06 08:08:38;;;;;;;;;;;;;;;26.67;37.01;100306.72;4944173;28;99059;-77
2021/08/06 08:11:05;;;;;;;;;;;;;;;27.27;36.71;100307.22;4949683;28;99091;-74
2021/08/06 08:13:31;;;;;;;;;;;;;;;27.70;35.28;100298.63;4949113;28;98855;-74
2021/08/06 08:15:57;;;;;;;;;;;;;;;27.63;35.59;100304.97;4950060;28;99436;-74
2021/08/06 08:18:25;;;;;;;;;;;;;;;27.92;34.74;100298.91;4948994;28;97198;-74
2021/08/06 08:20:52;;;;;;;;;;;;;;;27.65;34.28;100298.31;4947965;28;98226;-74
2021/08/06 08:23:19;;;;;;;;;;;;;;;27.99;34.33;100294.47;4950370;28;99344;-74
2021/08/06 08:25:49;;;;;;;;;;;;;;;27.99;34.61;100297.16;4949600;28;97798;-74
2021/08/06 08:28:15;;;;;;;;;;;;;;;27.93;34.65;100292.44;4945467;28;98726;-74
2021/08/06 08:30:41;;;;;;;;;;;;;;;28.02;34.46;100289.53;4949504;28;99018;-73
2021/08/06 08:33:07;;;;;;;;;;;;;;;28.40;34.05;100290.50;4949940;28;98909;-76
2021/08/06 08:35:35;;;;;;;;;;;;;;;27.80;34.86;100294.88;4952115;28;96859;-75
2021/08/06 08:38:01;;;;;;;;;;;;;;;28.21;34.45;100290.97;4949082;28;97672;-75
2021/08/06 08:40:28;;;;;;;;;;;;;;;28.03;34.79;100284.91;4948673;28;99292;-75
2021/08/06 08:42:55;;;;;;;;;;;;;;;28.09;35.30;100287.75;4949298;28;99058;-75
2021/08/06 08:45:21;;;;;;;;;;;;;;;27.58;35.67;100286.47;4951518;28;96978;-74
2021/08/06 08:47:48;;;;;;;;;;;;;;;27.19;36.10;100280.94;4950682;28;98828;-74
2021/08/06 08:50:15;;;;;;;;;;;;;;;28.03;35.10;100282.19;4950217;28;98997;-74
2021/08/06 08:52:43;;;;;;;;;;;;;;;28.70;34.07;100286.03;4949480;28;98995;-74
2021/08/06 08:55:10;;;;;;;;;;;;;;;28.38;33.65;100292.56;4946312;28;96919;-77
2021/08/06 08:57:36;;;;;;;;;;;;;;;27.76;33.22;100288.97;4947180;28;96920;-74
2021/08/06 09:00:04;;;;;;;;;;;;;;;28.23;31.82;100277.19;4949782;28;99012;-75
2021/08/06 09:02:30;;;;;;;;;;;;;;;28.31;32.46;100269.00;4951038;28;99015;-75
2021/08/06 09:05:10;;;;;;;;;;;;;;;28.03;33.00;100279.47;4949542;28;99583;-74
2021/08/06 09:07:37;;;;;;;;;;;;;;;28.33;31.78;100275.09;4950404;28;98637;-74
2021/08/06 09:10:09;;;;;;;;;;;;;;;28.27;31.86;100270.41;4953335;28;98941;-73
2021/08/06 09:12:48;;;;;;;;;;;;;;;28.21;31.96;100268.41;4950944;28;99325;-74
2021/08/06 09:15:14;;;;;;;;;;;;;;;28.35;32.04;100267.63;4949248;28;97196;-75
2021/08/06 09:17:41;;;;;;;;;;;;;;;27.53;31.22;100283.44;4950118;28;96914;-75
2021/08/06 09:20:08;;;;;;;;;;;;;;;27.96;29.96;100270.38;4950853;28;98827;-75
2021/08/06 09:22:34;;;;;;;;;;;;;;;28.21;30.52;100273.84;4951322;28;98994;-75
2021/08/06 09:25:06;;;;;;;;;;;;;;;28.55;30.29;100271.56;4952606;28;96934;-75
2021/08/06 09:27:35;;;;;;;;;;;;;;;28.80;30.00;100267.66;4951779;28;98839;-75
2021/08/06 09:30:03;;;;;;;;;;;;;;;28.66;30.97;100265.69;4951096;28;99285;-75
2021/08/06 09:32:44;;;;;;;;;;;;;;;29.04;29.69;100268.44;4949328;28;98789;-74
2021/08/06 09:35:13;;;;;;;;;;;;;;;28.36;30.11;100272.00;4946969;28;97320;-75
2021/08/06 09:37:39;;;;;;;;;;;;;;;27.87;31.37;100263.28;4949983;28;96981;-74
2021/08/06 09:40:11;;;;;;;;;;;;;;;28.78;30.45;100260.69;4952812;28;98938;-75
2021/08/06 09:42:47;;;;;;;;;;;;;;;28.84;30.38;100260.78;4948569;28;98884;-75
2021/08/06 09:45:15;;;;;;;;;;;;;;;29.07;29.81;100259.91;4944925;28;96763;-75
2021/08/06 09:47:42;;;;;;;;;;;;;;;28.97;30.06;100260.16;4951436;28;96885;-75
2021/08/06 09:50:09;;;;;;;;;;;;;;;28.87;28.25;100254.16;4954245;28;97854;-74
2021/08/06 09:52:36;;;;;;;;;;;;;;;28.91;28.25;100258.19;4955156;28;100196;-74
2021/08/06 09:55:03;;;;;;;;;;;;;;;28.38;28.82;100259.09;4956141;28;96971;-74
2021/08/06 09:57:29;;;;;;;;;;;;;;;28.79;28.65;100256.94;4953853;28;97256;-75
2021/08/06 09:59:58;;;;;;;;;;;;;;;28.71;28.83;100251.53;4954135;28;99681;-75
2021/08/06 10:02:26;;;;;;;;;;;;;;;28.22;28.47;100246.50;4948757;28;98832;-73
2021/08/06 10:05:03;;;;;;;;;;;;;;;28.81;27.94;100244.88;4954521;28;97027;-75
2021/08/06 10:07:30;;;;;;;;;;;;;;;28.54;28.70;100248.13;4954068;28;97256;-75
2021/08/06 10:09:57;;;;;;;;;;;;;;;28.12;29.98;100243.97;4954040;28;98883;-75
2021/08/06 10:12:23;;;;;;;;;;;;;;;28.36;29.23;100244.84;4954286;28;99174;-74
2021/08/06 10:14:50;;;;;;;;;;;;;;;29.02;28.33;100233.25;4956397;28;96903;-74
2021/08/06 10:17:17;;;;;;;;;;;;;;;29.22;27.84;100230.81;4954884;28;97525;-75
2021/08/06 10:19:44;;;;;;;;;;;;;;;28.90;28.03;100235.59;4954456;28;99336;-73
2021/08/06 10:22:10;;;;;;;;;;;;;;;28.58;28.87;100237.72;4955273;28;98915;-75
2021/08/06 10:24:37;;;;;;;;;;;;;;;28.14;29.24;100228.38;4954864;28;96969;-73
2021/08/06 10:27:04;;;;;;;;;;;;;;;28.67;28.79;100232.03;4955827;28;96926;-73
2021/08/06 10:29:30;;;;;;;;;;;;;;;28.24;29.42;100230.00;4954040;28;98867;-75
2021/08/06 10:32:13;;;;;;;;;;;;;;;28.29;29.51;100230.31;4955286;28;98741;-76
2021/08/06 10:35:07;;;;;;;;;;;;;;;29.00;28.84;100234.50;4951193;28;96788;-74
2021/08/06 10:37:54;;;;;;;;;;;;;;;28.61;27.97;100224.63;4942640;28;97199;-75
2021/08/06 10:40:39;;;;;;;;;;;;;;;28.83;28.81;100228.34;4947108;28;97957;-75
2021/08/06 10:43:34;;;;;;;;;;;;;;;29.21;27.44;100229.97;4951597;28;99270;-75
2021/08/06 10:46:00;;;;;;;;;;;;;;;29.48;27.11;100217.63;4954596;28;97064;-75
2021/08/06 10:48:34;;;;;;;;;;;;;;;29.71;27.40;100214.78;4955066;28;97552;-75
2021/08/06 10:51:15;;;;;;;;;;;;;;;28.96;28.73;100228.56;4954931;28;98909;-75
2021/08/06 10:53:44;;;;;;;;;;;;;;;28.91;28.86;100215.53;4948059;28;98774;-74
2021/08/06 10:56:24;;;;;;;;;;;;;;;28.69;29.00;100208.22;4950414;28;97070;-74
2021/08/06 10:58:54;;;;;;;;;;;;;;;29.24;28.50;100207.00;4945256;28;98145;-78
2021/08/06 11:01:39;;;;;;;;;;;;;;;29.90;28.03;100208.72;4951219;28;99303;-75
2021/08/06 11:04:06;;;;;;;;;;;;;;;29.19;28.44;100209.44;4951840;28;97985;-75
2021/08/06 11:06:32;;;;;;;;;;;;;;;29.77;28.25;100214.03;4953338;28;96905;-74
2021/08/06 11:09:00;;;;;;;;;;;;;;;29.81;27.39;100204.41;4953768;28;96753;-74
2021/08/06 11:11:43;;;;;;;;;;;;;;;30.24;27.10;100197.19;4948964;28;98515;-75
2021/08/06 11:14:10;;;;;;;;;;;;;;;29.95;27.75;100197.28;4952824;28;98848;-74
2021/08/06 11:16:56;;;;;;;;;;;;;;;30.46;26.60;100192.56;4953877;28;96941;-74
2021/08/06 11:19:25;;;;;;;;;;;;;;;30.04;26.66;100194.25;4954944;28;97086;-74
2021/08/06 11:21:51;;;;;;;;;;;;;;;30.13;26.72;100191.41;4951893;28;99132;-75
2021/08/06 11:24:22;;;;;;;;;;;;;;;30.31;25.04;100179.03;4954165;28;99129;-75
2021/08/06 11:26:49;;;;;;;;;;;;;;;30.29;25.62;100189.25;4951069;28;96986;-75
2021/08/06 11:29:15;;;;;;;;;;;;;;;30.41;25.39;100182.25;4953893;28;96989;-76
2021/08/06 11:31:42;;;;;;;;;;;;;;;29.90;26.58;100181.50;4950226;28;98874;-75
2021/08/06 11:34:09;;;;;;;;;;;;;;;30.03;26.40;100180.81;4945510;28;98796;-76
2021/08/06 11:36:36;;;;;;;;;;;;;;;30.58;26.06;100179.28;4954010;28;96923;-74
2021/08/06 11:39:12;;;;;;;;;;;;;;;30.63;26.03;100174.06;4953912;28;96878;-76
2021/08/06 11:41:50;;;;;;;;;;;;;;;29.76;25.62;100173.38;4952682;28;97835;-74
2021/08/06 11:44:16;;;;;;;;;;;;;;;29.57;26.65;100180.25;4952819;28;98820;-74
2021/08/06 11:46:46;;;;;;;;;;;;;;;29.67;25.84;100170.75;4950034;28;97827;-74
2021/08/06 11:49:12;;;;;;;;;;;;;;;30.06;26.52;100177.72;4953529;28;96941;-74
2021/08/06 11:51:45;;;;;;;;;;;;;;;30.07;25.34;100160.31;4952728;28;99547;-74
2021/08/06 11:54:11;;;;;;;;;;;;;;;30.52;24.37;100158.25;4951629;28;98703;-74
2021/08/06 11:56:59;;;;;;;;;;;;;;;30.60;24.88;100152.63;5088711;27;96718;-73
2021/08/06 11:59:26;;;;;;;;;;;;;;;30.23;25.48;100156.50;5073959;27;97494;-75
2021/08/06 12:02:07;;;;;;;;;;;;;;;30.78;24.87;100158.47;5073968;27;99193;-75
2021/08/06 12:04:33;;;;;;;;;;;;;;;29.97;25.65;100160.66;5065436;27;98943;-75
2021/08/06 12:06:59;;;;;;;;;;;;;;;29.64;26.08;100146.66;5073080;27;96779;-75
2021/08/06 12:09:26;;;;;;;;;;;;;;;29.86;25.88;100152.13;5073248;27;96924;-75
2021/08/06 12:11:52;;;;;;;;;;;;;;;30.68;25.96;100136.13;5069402;27;99792;-74
2021/08/06 12:14:28;;;;;;;;;;;;;;;30.87;25.21;100140.88;5070650;27;98699;-76
2021/08/06 12:16:55;;;;;;;;;;;;;;;31.16;24.66;100131.66;5073571;27;97885;-74
2021/08/06 12:19:22;;;;;;;;;;;;;;;31.22;24.75;100128.94;5070604;27;97954;-75
2021/08/06 12:21:48;;;;;;;;;;;;;;;31.08;25.03;100127.19;5069599;27;99487;-79
2021/08/06 12:24:16;;;;;;;;;;;;;;;31.00;25.19;100130.06;5077293;27;97621;-73
2021/08/06 12:26:43;;;;;;;;;;;;;;;31.05;24.51;100116.66;5069894;27;97283;-76
2021/08/06 12:29:12;;;;;;;;;;;;;;;30.76;24.29;100116.91;5069451;27;97371;-75
2021/08/06 12:31:48;;;;;;;;;;;;;;;30.16;24.08;100120.16;5069845;27;98362;-75
2021/08/06 12:34:15;;;;;;;;;;;;;;;30.09;24.69;100110.06;5070462;27;99126;-75
2021/08/06 12:36:52;;;;;;;;;;;;;;;30.10;24.56;100116.34;5071037;27;97258;-76
2021/08/06 12:39:18;;;;;;;;;;;;;;;30.52;23.77;100114.66;5068216;27;96963;-76
2021/08/06 12:41:46;;;;;;;;;;;;;;;30.46;23.82;100111.63;5062635;27;98964;-77